Crossmaglen, United Kingdom
Current Conditions -  °F | °C
As of 8:50 AM on Sunday 26 Oct 2014 (Local Time) from EGAA Reporting Station
Broken Clouds Broken Clouds  
Wind Chill: 52°   Ceiling: 2400
Heat Index: 52°   Visibility: 6mi
Dew Point: 46°   Wind: 16mph
Humidity: 82%   Direction: 220°SW
Pressure: 29.74"   Gusts: NA
Location:  54.08°N, 6.6°W
Report Text: EGAA 260750Z 22014KT 9999 SCT018 BKN024 11/08 Q1007
Loading
Personal Weather Stations






























Interactive Weather Map
Tropical Storm Tracking
New forecast layout! Learn more

10-Day Weather Forecast

Advertisements
Track Severe Weather on mobile